Time;durP1;ratioP1;P1;durP2;ratioP2;P2;SDS_P1;SDS_P2;PMS_P1;PMS_P2;Temp;Humidity;BMP_temperature;BMP_pressure;BME280_temperature;BME280_humidity;BME280_pressure;Samples;Min_cycle;Max_cycle;Signal;HPM_P1;HPM_P2
2021/08/21 00:01:18;;;;;;;2.17;1.90;;;18.80;99.90;;;;;;4139798;28;20030;-69
2021/08/21 00:03:18;;;;;;;2.90;1.88;;;18.80;99.90;;;;;;4145515;28;20077;-69
2021/08/21 00:05:19;;;;;;;2.50;1.75;;;18.80;99.90;;;;;;4135138;28;20107;-70
2021/08/21 00:07:20;;;;;;;4.82;2.00;;;18.80;99.90;;;;;;4155781;28;20045;-69
2021/08/21 00:09:20;;;;;;;2.78;1.83;;;18.80;99.90;;;;;;4157056;28;20069;-69
2021/08/21 00:11:21;;;;;;;3.28;2.05;;;18.80;99.90;;;;;;4157629;28;20045;-69
2021/08/21 00:13:21;;;;;;;2.70;1.90;;;18.80;99.90;;;;;;4150813;28;20375;-70
2021/08/21 00:15:22;;;;;;;3.10;2.30;;;18.80;99.90;;;;;;4149437;28;20048;-69
2021/08/21 00:17:22;;;;;;;2.80;2.15;;;18.80;99.90;;;;;;4155856;28;20037;-69
2021/08/21 00:19:23;;;;;;;4.68;2.58;;;18.80;99.90;;;;;;4147369;28;20037;-69
2021/08/21 00:21:24;;;;;;;3.95;2.40;;;18.70;99.90;;;;;;4143387;28;20041;-70
2021/08/21 00:23:24;;;;;;;6.60;2.50;;;18.70;99.90;;;;;;4153527;28;20092;-70
2021/08/21 00:25:25;;;;;;;2.88;2.40;;;18.70;99.90;;;;;;4157676;28;20132;-69
2021/08/21 00:27:27;;;;;;;4.07;2.22;;;18.70;99.90;;;;;;4155227;28;21281;-70
2021/08/21 00:29:27;;;;;;;4.22;2.63;;;18.70;99.90;;;;;;4148720;28;22988;-70
2021/08/21 00:31:29;;;;;;;4.90;2.47;;;18.60;99.90;;;;;;4144773;28;20050;-70
2021/08/21 00:33:30;;;;;;;3.75;2.80;;;18.60;99.90;;;;;;4132573;28;20360;-70
2021/08/21 00:35:30;;;;;;;3.33;2.45;;;18.60;99.90;;;;;;4137607;28;20058;-69
2021/08/21 00:37:31;;;;;;;3.08;2.38;;;18.60;99.90;;;;;;4157442;28;20113;-70
2021/08/21 00:39:32;;;;;;;3.15;2.63;;;18.60;99.90;;;;;;4151683;28;20040;-70
2021/08/21 00:41:35;;;;;;;3.35;2.40;;;18.60;99.90;;;;;;4152662;28;20100;-70
2021/08/21 00:43:37;;;;;;;3.70;2.38;;;18.50;99.90;;;;;;4156231;28;20033;-70
2021/08/21 00:45:38;;;;;;;3.15;2.55;;;18.50;99.90;;;;;;4152970;28;20552;-70
2021/08/21 00:47:38;;;;;;;3.33;2.40;;;18.50;99.90;;;;;;4156456;28;20037;-70
2021/08/21 00:49:45;;;;;;;3.97;3.03;;;18.50;99.90;;;;;;4136437;28;20037;-70
2021/08/21 00:51:45;;;;;;;2.88;2.35;;;18.50;99.90;;;;;;4145153;28;20037;-70
2021/08/21 00:53:46;;;;;;;4.47;2.72;;;18.50;99.90;;;;;;4153266;28;20030;-70
2021/08/21 00:55:49;;;;;;;7.50;2.75;;;18.40;99.90;;;;;;4141245;28;20076;-70
2021/08/21 00:57:50;;;;;;;3.88;2.55;;;18.40;99.90;;;;;;4144162;28;20444;-70
2021/08/21 00:59:52;;;;;;;3.35;2.70;;;18.40;99.90;;;;;;4143026;28;20068;-70
2021/08/21 01:01:53;;;;;;;3.90;2.77;;;18.40;99.90;;;;;;4162402;28;20045;-70
2021/08/21 01:03:54;;;;;;;6.07;2.95;;;18.40;99.90;;;;;;4148465;28;20281;-70
2021/08/21 01:05:54;;;;;;;4.93;3.20;;;18.30;99.90;;;;;;4143591;28;20052;-70
2021/08/21 01:07:55;;;;;;;3.67;2.78;;;18.30;99.90;;;;;;4149359;28;20129;-70
2021/08/21 01:10:00;;;;;;;3.47;2.75;;;18.30;99.90;;;;;;4152476;28;20086;-70
2021/08/21 01:12:00;;;;;;;3.55;2.60;;;18.30;99.90;;;;;;4151916;28;20037;-70
2021/08/21 01:14:01;;;;;;;3.55;2.80;;;18.30;99.90;;;;;;4145960;28;20064;-70
2021/08/21 01:16:02;;;;;;;3.63;2.83;;;18.30;99.90;;;;;;4138274;28;20118;-70
2021/08/21 01:18:04;;;;;;;4.78;2.67;;;18.30;99.90;;;;;;4143678;28;20050;-70
2021/08/21 01:20:06;;;;;;;3.47;2.53;;;18.30;99.90;;;;;;4140415;28;20042;-70
2021/08/21 01:22:11;;;;;;;6.68;2.60;;;18.20;99.90;;;;;;4141721;28;20042;-70
2021/08/21 01:24:13;;;;;;;4.90;2.42;;;18.20;99.90;;;;;;4145727;28;20129;-70
2021/08/21 01:26:14;;;;;;;3.45;2.78;;;18.20;99.90;;;;;;4154689;28;20029;-70
2021/08/21 01:28:14;;;;;;;3.30;2.67;;;18.20;99.90;;;;;;4156656;28;20481;-70
2021/08/21 01:30:15;;;;;;;2.83;2.45;;;18.20;99.90;;;;;;4149670;28;20046;-69
2021/08/21 01:32:16;;;;;;;4.45;2.90;;;18.20;99.90;;;;;;4147524;28;20041;-70
2021/08/21 01:34:17;;;;;;;6.93;3.20;;;18.10;99.90;;;;;;4148265;28;20070;-70
2021/08/21 01:36:18;;;;;;;3.25;2.70;;;18.10;99.90;;;;;;4153429;28;20057;-70
2021/08/21 01:38:18;;;;;;;7.35;2.85;;;18.10;99.90;;;;;;4157990;28;20853;-70
2021/08/21 01:40:19;;;;;;;2.85;2.25;;;18.00;99.90;;;;;;4160215;28;20072;-70
2021/08/21 01:42:20;;;;;;;4.97;2.95;;;18.00;99.90;;;;;;4151810;28;20041;-70
2021/08/21 01:44:21;;;;;;;3.20;2.55;;;18.00;99.90;;;;;;4147320;28;20436;-70
2021/08/21 01:46:23;;;;;;;4.10;3.00;;;18.00;99.90;;;;;;4144485;28;20112;-70
2021/08/21 01:48:23;;;;;;;3.67;3.25;;;18.00;99.90;;;;;;4146941;28;20038;-70
2021/08/21 01:50:24;;;;;;;3.25;2.70;;;18.00;99.90;;;;;;4154882;28;20125;-70
2021/08/21 01:52:25;;;;;;;4.00;3.10;;;18.00;99.90;;;;;;4131809;28;20042;-70
2021/08/21 01:54:26;;;;;;;9.80;3.75;;;18.00;99.90;;;;;;4152766;28;20164;-70
2021/08/21 01:56:27;;;;;;;4.55;3.53;;;18.00;99.90;;;;;;4158346;28;20392;-70
2021/08/21 01:58:28;;;;;;;4.53;3.35;;;18.00;99.90;;;;;;4150616;28;20040;-70
2021/08/21 02:00:28;;;;;;;4.40;3.28;;;17.90;99.90;;;;;;4161164;28;20034;-70
2021/08/21 02:02:29;;;;;;;4.35;3.33;;;17.90;99.90;;;;;;4153702;28;20848;-70
2021/08/21 02:04:30;;;;;;;5.93;3.58;;;17.90;99.90;;;;;;4154353;28;20038;-70
2021/08/21 02:06:30;;;;;;;4.03;3.40;;;17.90;99.90;;;;;;4153863;28;20810;-70
2021/08/21 02:08:31;;;;;;;4.63;3.70;;;17.90;99.90;;;;;;4158048;28;20590;-70
2021/08/21 02:10:32;;;;;;;5.22;4.03;;;17.90;99.90;;;;;;4154852;28;20038;-70
2021/08/21 02:12:33;;;;;;;5.55;4.00;;;17.90;99.90;;;;;;4147856;28;20085;-70
2021/08/21 02:14:34;;;;;;;5.15;3.65;;;17.90;99.90;;;;;;4147951;28;20046;-70
2021/08/21 02:16:34;;;;;;;5.07;3.70;;;17.90;99.90;;;;;;4155230;28;20064;-70
2021/08/21 02:18:35;;;;;;;3.35;3.05;;;17.90;99.90;;;;;;4146935;28;20042;-70
2021/08/21 02:20:36;;;;;;;5.07;3.63;;;17.90;99.90;;;;;;4154483;28;20026;-70
2021/08/21 02:22:36;;;;;;;4.50;3.33;;;17.80;99.90;;;;;;4144993;28;20045;-70
2021/08/21 02:24:37;;;;;;;4.22;3.50;;;17.80;99.90;;;;;;4143649;28;20042;-70
2021/08/21 02:26:42;;;;;;;4.10;3.25;;;17.80;99.90;;;;;;4158508;28;20052;-70
2021/08/21 02:28:43;;;;;;;4.65;3.30;;;17.80;99.90;;;;;;4141228;28;20057;-71
2021/08/21 02:30:44;;;;;;;4.20;2.85;;;17.80;99.90;;;;;;4160834;28;20037;-70
2021/08/21 02:32:45;;;;;;;4.20;3.10;;;17.80;99.90;;;;;;4152941;28;20119;-70
2021/08/21 02:34:45;;;;;;;3.13;2.78;;;17.80;99.90;;;;;;4142535;28;20044;-70
2021/08/21 02:36:46;;;;;;;4.35;2.92;;;17.70;99.90;;;;;;4138291;28;20041;-70
2021/08/21 02:38:46;;;;;;;7.05;3.20;;;17.70;99.90;;;;;;4144124;28;20112;-70
2021/08/21 02:40:48;;;;;;;5.60;3.50;;;17.70;99.90;;;;;;4141479;28;20049;-70
2021/08/21 02:42:50;;;;;;;4.30;3.33;;;17.70;99.90;;;;;;4141591;28;20038;-70
2021/08/21 02:44:50;;;;;;;5.00;3.15;;;17.70;99.90;;;;;;4159450;28;20037;-70
2021/08/21 02:46:51;;;;;;;4.43;3.70;;;17.70;99.90;;;;;;4154648;28;20763;-70
2021/08/21 02:48:52;;;;;;;4.25;3.58;;;17.70;99.90;;;;;;4143955;28;20509;-70
2021/08/21 02:50:52;;;;;;;4.28;3.25;;;17.70;99.90;;;;;;4150716;28;20037;-70
2021/08/21 02:52:53;;;;;;;6.00;3.60;;;17.70;99.90;;;;;;4138683;28;20494;-70
2021/08/21 02:54:54;;;;;;;5.93;3.70;;;17.70;99.90;;;;;;4155449;28;20044;-70
2021/08/21 02:56:54;;;;;;;7.15;4.03;;;17.70;99.90;;;;;;4149279;28;20133;-70
2021/08/21 02:58:55;;;;;;;3.72;3.25;;;17.70;99.90;;;;;;4143831;28;20092;-70
2021/08/21 03:00:55;;;;;;;4.97;3.63;;;17.60;99.90;;;;;;4142116;28;21274;-70
2021/08/21 03:02:57;;;;;;;3.67;2.88;;;17.70;99.90;;;;;;4144205;28;20046;-70
2021/08/21 03:04:58;;;;;;;3.25;2.70;;;17.60;99.90;;;;;;4142096;28;20053;-70
2021/08/21 03:06:59;;;;;;;3.92;3.15;;;17.60;99.90;;;;;;4151176;28;20037;-70
2021/08/21 03:08:59;;;;;;;4.93;3.50;;;17.60;99.90;;;;;;4156410;28;20045;-70
2021/08/21 03:11:00;;;;;;;4.78;3.30;;;17.60;99.90;;;;;;4137908;28;20046;-70
2021/08/21 03:13:02;;;;;;;3.97;3.15;;;17.50;99.90;;;;;;4146142;28;20047;-70
2021/08/21 03:15:03;;;;;;;4.72;3.20;;;17.60;99.90;;;;;;4140379;28;20037;-69
2021/08/21 03:17:09;;;;;;;3.45;2.95;;;17.50;99.90;;;;;;4148849;28;20351;-70
2021/08/21 03:19:10;;;;;;;5.45;3.22;;;17.50;99.90;;;;;;4138664;28;20026;-70
2021/08/21 03:21:11;;;;;;;3.80;2.90;;;17.50;99.90;;;;;;4152785;28;20049;-70
2021/08/21 03:23:11;;;;;;;3.65;2.67;;;17.50;99.90;;;;;;4139047;28;20509;-69
2021/08/21 03:25:12;;;;;;;3.55;2.90;;;17.50;99.90;;;;;;4145653;28;20026;-70
2021/08/21 03:27:13;;;;;;;5.20;3.42;;;17.40;99.90;;;;;;4132620;28;20573;-69
2021/08/21 03:29:13;;;;;;;4.13;3.38;;;17.40;99.90;;;;;;4142210;28;20042;-70
2021/08/21 03:31:14;;;;;;;6.18;3.45;;;17.40;99.90;;;;;;4137616;28;20045;-70
2021/08/21 03:33:14;;;;;;;7.20;4.53;;;17.40;99.90;;;;;;4157838;28;20149;-70
2021/08/21 03:35:15;;;;;;;5.47;3.80;;;17.40;99.90;;;;;;4148350;28;20137;-70
2021/08/21 03:37:16;;;;;;;4.20;3.80;;;17.40;99.90;;;;;;4136376;28;20034;-70
2021/08/21 03:39:16;;;;;;;5.35;4.13;;;17.40;99.90;;;;;;4139151;28;20648;-70
2021/08/21 03:41:17;;;;;;;4.22;3.38;;;17.40;99.90;;;;;;4136606;28;20029;-70
2021/08/21 03:43:18;;;;;;;4.53;3.60;;;17.40;99.90;;;;;;4120760;28;20309;-70
2021/08/21 03:45:18;;;;;;;5.07;3.50;;;17.30;99.90;;;;;;4143113;28;20045;-70
2021/08/21 03:47:19;;;;;;;5.28;3.45;;;17.40;99.90;;;;;;4137755;28;20593;-70
2021/08/21 03:49:20;;;;;;;4.57;3.13;;;17.30;99.90;;;;;;4140485;28;20450;-70
2021/08/21 03:51:20;;;;;;;4.30;3.20;;;17.30;99.90;;;;;;4138905;28;20780;-69
2021/08/21 03:53:21;;;;;;;3.70;2.97;;;17.30;99.90;;;;;;4140885;28;20053;-70
2021/08/21 03:55:22;;;;;;;4.45;3.58;;;17.30;99.90;;;;;;4120941;28;20354;-71
2021/08/21 03:57:22;;;;;;;4.13;3.22;;;17.30;99.90;;;;;;4137534;28;20099;-70
2021/08/21 03:59:23;;;;;;;5.13;3.47;;;17.40;99.90;;;;;;4142213;28;20049;-70
2021/08/21 04:01:24;;;;;;;4.57;3.50;;;17.30;99.90;;;;;;4140045;28;20042;-70
2021/08/21 04:03:25;;;;;;;3.75;3.10;;;17.30;99.90;;;;;;4137822;28;20072;-70
2021/08/21 04:05:28;;;;;;;4.80;3.78;;;17.30;99.90;;;;;;4142668;28;20056;-70
2021/08/21 04:07:29;;;;;;;4.45;3.50;;;17.30;99.90;;;;;;4135155;28;20035;-70
2021/08/21 04:09:30;;;;;;;5.35;3.30;;;17.30;99.90;;;;;;4137618;28;20056;-70
2021/08/21 04:11:30;;;;;;;6.47;3.75;;;17.30;99.90;;;;;;4145734;28;20080;-70
2021/08/21 04:13:31;;;;;;;3.80;3.13;;;17.30;99.90;;;;;;4156414;28;20042;-70
2021/08/21 04:15:32;;;;;;;5.38;3.25;;;17.30;99.90;;;;;;4149747;28;20050;-70
2021/08/21 04:17:32;;;;;;;5.88;3.65;;;17.30;99.90;;;;;;4149128;28;20147;-70
2021/08/21 04:19:33;;;;;;;4.95;3.53;;;17.30;99.90;;;;;;4152035;28;20043;-70
2021/08/21 04:21:35;;;;;;;4.10;3.17;;;17.40;99.90;;;;;;4154454;28;20041;-70
2021/08/21 04:23:36;;;;;;;4.15;3.42;;;17.30;99.90;;;;;;4158510;28;20047;-70
2021/08/21 04:25:37;;;;;;;5.95;3.75;;;17.30;99.90;;;;;;4138219;28;20116;-70
2021/08/21 04:27:37;;;;;;;5.80;3.55;;;17.30;99.90;;;;;;4138170;28;20038;-70
2021/08/21 04:29:38;;;;;;;4.55;3.70;;;17.30;99.90;;;;;;4138475;28;20084;-70
2021/08/21 04:31:39;;;;;;;4.82;3.28;;;17.30;99.90;;;;;;4146135;28;20038;-70
2021/08/21 04:33:40;;;;;;;4.25;3.35;;;17.30;99.90;;;;;;4140195;28;20112;-70
2021/08/21 04:35:41;;;;;;;5.78;3.70;;;17.30;99.90;;;;;;4157224;28;20488;-70
2021/08/21 04:37:42;;;;;;;5.55;3.60;;;17.30;99.90;;;;;;4156152;28;20453;-70
2021/08/21 04:39:42;;;;;;;5.38;3.80;;;17.30;99.90;;;;;;4155506;28;20088;-70
2021/08/21 04:41:43;;;;;;;6.22;3.72;;;17.30;99.90;;;;;;4160654;28;20037;-70
2021/08/21 04:43:43;;;;;;;7.78;4.07;;;17.30;99.90;;;;;;4161704;28;20110;-70
2021/08/21 04:45:44;;;;;;;5.40;4.50;;;17.30;99.90;;;;;;4154572;28;20049;-70
2021/08/21 04:47:45;;;;;;;5.93;4.15;;;17.30;99.90;;;;;;4158347;28;20033;-70
2021/08/21 04:49:46;;;;;;;5.00;3.45;;;17.30;99.90;;;;;;4158550;28;20044;-70
2021/08/21 04:51:46;;;;;;;4.60;3.55;;;17.30;99.90;;;;;;4145997;28;20038;-70
2021/08/21 04:53:47;;;;;;;4.78;3.67;;;17.30;99.90;;;;;;4151765;28;20038;-70
2021/08/21 04:55:48;;;;;;;4.32;3.53;;;17.30;99.90;;;;;;4158036;28;20096;-70
2021/08/21 04:57:50;;;;;;;6.38;3.70;;;17.30;99.90;;;;;;4143534;28;20638;-70
2021/08/21 04:59:50;;;;;;;4.82;3.40;;;17.30;99.90;;;;;;4134085;28;20034;-70
2021/08/21 05:01:51;;;;;;;4.35;3.50;;;17.30;99.90;;;;;;4136766;28;20125;-70
2021/08/21 05:03:51;;;;;;;4.43;3.35;;;17.30;99.90;;;;;;4138441;28;20092;-70
2021/08/21 05:05:52;;;;;;;5.70;3.08;;;17.30;99.90;;;;;;4117795;28;20466;-70
2021/08/21 05:07:53;;;;;;;5.18;3.33;;;17.40;99.90;;;;;;4141751;28;20752;-70
2021/08/21 05:09:53;;;;;;;4.88;3.13;;;17.40;99.90;;;;;;4148509;28;20044;-72
2021/08/21 05:11:54;;;;;;;4.88;3.38;;;17.40;99.90;;;;;;4151058;28;20061;-72
2021/08/21 05:13:54;;;;;;;6.47;3.50;;;17.40;99.90;;;;;;4140408;28;20506;-71
2021/08/21 05:15:55;;;;;;;5.25;3.35;;;17.40;99.90;;;;;;4140417;28;20049;-72
2021/08/21 05:17:57;;;;;;;4.28;3.05;;;17.50;99.90;;;;;;4139399;28;20038;-72
2021/08/21 05:20:04;;;;;;;5.35;3.35;;;17.50;99.90;;;;;;4140834;28;20107;-71
2021/08/21 05:24:24;;;;;;;4.00;3.30;;;17.40;99.90;;;;;;4150900;28;20053;-72
2021/08/21 05:26:26;;;;;;;5.88;4.18;;;17.50;99.90;;;;;;4148509;28;20111;-72
2021/08/21 05:28:27;;;;;;;6.85;3.63;;;17.50;99.90;;;;;;4150524;28;20034;-73
2021/08/21 05:30:28;;;;;;;4.78;3.40;;;17.50;99.90;;;;;;4146095;28;20034;-72
2021/08/21 05:32:30;;;;;;;4.53;3.38;;;17.50;99.90;;;;;;4159802;28;20131;-71
2021/08/21 05:34:31;;;;;;;4.32;3.45;;;17.50;99.90;;;;;;4156641;28;20030;-71
2021/08/21 05:36:31;;;;;;;4.30;3.55;;;17.50;99.90;;;;;;4141386;28;20044;-72
2021/08/21 05:38:32;;;;;;;3.80;3.25;;;17.60;99.90;;;;;;4140724;28;20108;-72
2021/08/21 05:40:34;;;;;;;5.50;3.47;;;17.60;99.90;;;;;;4139853;28;20473;-71
2021/08/21 05:42:34;;;;;;;4.82;3.55;;;17.60;99.90;;;;;;4156611;28;20041;-71
2021/08/21 05:44:35;;;;;;;5.45;3.10;;;17.60;99.90;;;;;;4145508;28;20029;-71
2021/08/21 05:46:35;;;;;;;6.35;3.72;;;17.70;99.90;;;;;;4138500;28;20034;-71
2021/08/21 05:48:36;;;;;;;5.07;3.78;;;17.70;99.90;;;;;;4141522;28;20045;-71
2021/08/21 05:50:36;;;;;;;5.53;4.45;;;17.70;99.90;;;;;;4138780;28;20034;-71
2021/08/21 05:52:37;;;;;;;6.18;4.18;;;17.70;99.90;;;;;;4138501;28;20080;-72
2021/08/21 05:54:38;;;;;;;6.63;4.60;;;17.70;99.90;;;;;;4141739;28;20042;-71
2021/08/21 05:56:38;;;;;;;8.13;5.07;;;17.70;99.90;;;;;;4139863;28;20037;-71
2021/08/21 05:58:39;;;;;;;8.48;4.80;;;17.70;99.90;;;;;;4137926;28;20447;-71
2021/08/21 06:00:39;;;;;;;6.93;4.40;;;17.70;99.90;;;;;;4138860;28;20033;-72
2021/08/21 06:02:43;;;;;;;5.75;4.00;;;17.70;99.90;;;;;;4144285;28;20068;-71
2021/08/21 06:04:44;;;;;;;6.65;4.47;;;17.70;99.90;;;;;;4145760;28;20122;-71
2021/08/21 06:06:44;;;;;;;6.55;4.70;;;17.80;99.90;;;;;;4158469;28;20570;-71
2021/08/21 06:08:45;;;;;;;7.18;4.60;;;17.80;99.90;;;;;;4153268;28;20034;-71
2021/08/21 06:10:46;;;;;;;7.95;4.60;;;17.90;99.90;;;;;;4139352;28;20117;-72
2021/08/21 06:12:47;;;;;;;8.73;5.68;;;17.80;99.90;;;;;;4145314;28;20038;-71
2021/08/21 06:14:48;;;;;;;7.72;4.60;;;17.90;99.90;;;;;;4141950;28;20088;-72
2021/08/21 06:16:48;;;;;;;7.70;5.22;;;17.80;99.90;;;;;;4137563;28;20453;-71
2021/08/21 06:18:49;;;;;;;7.78;4.72;;;17.90;99.90;;;;;;4156597;28;20036;-71
2021/08/21 06:20:50;;;;;;;9.15;5.45;;;17.80;99.90;;;;;;4147015;28;20119;-71
2021/08/21 06:22:50;;;;;;;7.43;4.32;;;17.80;99.90;;;;;;4138854;28;20022;-72
2021/08/21 06:24:52;;;;;;;8.95;5.40;;;17.90;99.90;;;;;;4141082;28;20034;-72
2021/08/21 06:26:53;;;;;;;10.20;4.87;;;17.80;99.90;;;;;;4146928;28;20036;-71
2021/08/21 06:28:54;;;;;;;7.10;5.35;;;17.90;99.90;;;;;;4149089;28;20124;-71
2021/08/21 06:30:55;;;;;;;8.75;5.35;;;17.90;99.90;;;;;;4153699;28;20378;-71
2021/08/21 06:32:55;;;;;;;8.80;6.00;;;17.90;99.90;;;;;;4156442;28;20822;-71
2021/08/21 06:34:56;;;;;;;7.13;5.30;;;17.90;99.90;;;;;;4142368;28;20769;-71
2021/08/21 06:36:58;;;;;;;6.97;4.82;;;17.90;99.90;;;;;;4150740;28;20046;-70
2021/08/21 06:38:58;;;;;;;9.43;5.03;;;17.90;99.90;;;;;;4123605;28;20050;-70
2021/08/21 06:40:59;;;;;;;8.80;5.03;;;17.90;99.90;;;;;;4148769;28;20386;-70
2021/08/21 06:42:59;;;;;;;8.35;5.90;;;18.00;99.90;;;;;;4151164;28;20042;-70
2021/08/21 06:45:00;;;;;;;7.90;5.13;;;18.00;99.90;;;;;;4154252;28;20378;-70
2021/08/21 06:47:00;;;;;;;8.02;5.40;;;18.00;99.90;;;;;;4153995;28;20506;-70
2021/08/21 06:49:01;;;;;;;10.65;5.30;;;18.00;99.90;;;;;;4151980;28;20357;-70
2021/08/21 06:51:02;;;;;;;6.60;5.00;;;18.10;99.90;;;;;;4151403;28;20026;-70
2021/08/21 06:53:03;;;;;;;7.53;5.43;;;18.10;99.90;;;;;;4150783;28;20033;-70
2021/08/21 06:55:04;;;;;;;6.97;4.82;;;18.10;99.90;;;;;;4150891;28;20037;-70
2021/08/21 06:57:05;;;;;;;7.90;5.60;;;18.20;99.90;;;;;;4143239;28;20216;-70
2021/08/21 06:59:06;;;;;;;7.28;4.78;;;18.20;99.90;;;;;;4146837;28;20037;-70
2021/08/21 07:01:10;;;;;;;10.55;5.93;;;18.30;99.90;;;;;;4147800;28;20492;-71
2021/08/21 07:03:11;;;;;;;7.70;5.82;;;18.30;99.90;;;;;;4142987;28;20125;-71
2021/08/21 07:05:11;;;;;;;8.43;5.82;;;18.30;99.90;;;;;;4148771;28;20030;-70
2021/08/21 07:07:12;;;;;;;7.10;5.53;;;18.30;99.90;;;;;;4151142;28;20034;-71
2021/08/21 07:09:13;;;;;;;8.82;6.03;;;18.40;99.90;;;;;;4150310;28;20850;-71
2021/08/21 07:11:13;;;;;;;9.95;6.07;;;18.40;99.90;;;;;;4150233;28;20038;-71
2021/08/21 07:13:14;;;;;;;10.02;6.00;;;18.50;99.90;;;;;;4144678;28;20038;-70
2021/08/21 07:15:15;;;;;;;9.85;5.85;;;18.50;99.90;;;;;;4152659;28;20033;-71
2021/08/21 07:17:17;;;;;;;9.30;5.93;;;18.50;99.90;;;;;;4140021;28;20132;-71
2021/08/21 07:19:18;;;;;;;8.48;6.28;;;18.60;99.90;;;;;;4154598;28;20038;-71
2021/08/21 07:21:21;;;;;;;13.73;6.78;;;18.60;99.90;;;;;;4145314;28;20045;-71
2021/08/21 07:23:22;;;;;;;;;;;18.60;99.90;;;;;;4143839;28;20046;-70
2021/08/21 07:25:22;;;;;;;10.20;6.07;;;18.70;99.90;;;;;;4149376;28;19917;-71
2021/08/21 07:27:23;;;;;;;8.70;6.28;;;18.70;99.90;;;;;;4146049;28;20043;-71
2021/08/21 07:29:23;;;;;;;10.32;6.50;;;18.70;99.90;;;;;;4137935;28;20096;-71
2021/08/21 07:31:24;;;;;;;7.72;5.88;;;18.80;99.90;;;;;;4138018;28;20050;-71
2021/08/21 07:33:25;;;;;;;7.28;5.50;;;18.90;99.90;;;;;;4141642;28;20075;-70
2021/08/21 07:35:25;;;;;;;9.52;5.55;;;18.90;99.90;;;;;;4141262;28;20038;-70
2021/08/21 07:37:26;;;;;;;7.80;5.13;;;19.00;99.90;;;;;;4139114;28;20467;-71
2021/08/21 07:39:26;;;;;;;7.55;5.22;;;19.00;99.90;;;;;;4146734;28;20045;-70
2021/08/21 07:41:27;;;;;;;9.07;5.40;;;19.10;99.90;;;;;;4148381;28;20050;-71
2021/08/21 07:43:28;;;;;;;6.50;5.18;;;19.10;99.90;;;;;;4151012;28;20041;-71
2021/08/21 07:45:30;;;;;;;8.00;5.13;;;19.20;99.90;;;;;;4141186;28;20649;-71
2021/08/21 07:47:30;;;;;;;9.88;6.22;;;19.30;99.90;;;;;;4152641;28;20832;-71
2021/08/21 07:49:31;;;;;;;7.63;5.68;;;19.30;99.90;;;;;;4152586;28;20043;-71
2021/08/21 07:51:32;;;;;;;6.50;4.95;;;19.30;99.90;;;;;;4139242;28;20030;-71
2021/08/21 07:53:32;;;;;;;8.95;5.50;;;19.40;99.90;;;;;;4143242;28;20045;-70
2021/08/21 07:55:33;;;;;;;7.38;4.88;;;19.40;99.90;;;;;;4148750;28;20041;-71
2021/08/21 07:57:33;;;;;;;6.53;4.68;;;19.50;99.90;;;;;;4143905;28;20038;-71
2021/08/21 07:59:34;;;;;;;7.03;5.18;;;19.60;99.90;;;;;;4143254;28;20049;-70
2021/08/21 08:01:34;;;;;;;8.02;4.80;;;19.60;99.90;;;;;;4144552;28;20422;-70
2021/08/21 08:03:35;;;;;;;6.75;4.55;;;19.60;99.90;;;;;;4140792;28;20029;-70
2021/08/21 08:05:36;;;;;;;8.13;5.25;;;19.70;99.90;;;;;;4145720;28;20041;-70
2021/08/21 08:07:36;;;;;;;6.20;4.95;;;19.70;99.90;;;;;;4160194;28;20152;-70
2021/08/21 08:09:37;;;;;;;7.38;5.20;;;19.70;99.90;;;;;;4151910;28;20546;-70
2021/08/21 08:11:37;;;;;;;5.68;4.68;;;19.70;99.90;;;;;;4141405;28;20520;-70
2021/08/21 08:13:38;;;;;;;7.07;4.78;;;19.80;99.90;;;;;;4135903;28;20041;-70
2021/08/21 08:15:39;;;;;;;7.13;4.97;;;19.80;99.90;;;;;;4124221;28;20110;-70
2021/08/21 08:17:39;;;;;;;7.50;4.68;;;19.90;99.90;;;;;;4134821;28;20548;-71
2021/08/21 08:19:40;;;;;;;8.20;5.15;;;19.90;99.90;;;;;;4149214;28;20034;-70
2021/08/21 08:21:40;;;;;;;7.13;4.85;;;20.00;99.90;;;;;;4136935;28;20036;-70
2021/08/21 08:23:41;;;;;;;7.07;4.68;;;20.10;99.90;;;;;;4141275;28;20041;-70
2021/08/21 08:25:42;;;;;;;7.38;4.75;;;20.10;99.90;;;;;;4171850;28;20118;-67
2021/08/21 08:27:45;;;;;;;6.55;4.80;;;20.20;99.90;;;;;;4153253;28;20065;-70
2021/08/21 08:29:46;;;;;;;7.35;5.10;;;20.30;99.90;;;;;;4138579;28;20041;-70
2021/08/21 08:31:46;;;;;;;6.28;4.32;;;20.40;99.90;;;;;;4146988;28;20042;-70
2021/08/21 08:33:47;;;;;;;6.88;4.78;;;20.50;99.90;;;;;;4139433;28;20037;-70
2021/08/21 08:35:51;;;;;;;6.70;4.70;;;20.60;99.90;;;;;;4148445;28;20042;-70
2021/08/21 08:37:52;;;;;;;13.82;7.40;;;20.70;99.90;;;;;;4141364;28;20251;-69
2021/08/21 08:39:52;;;;;;;7.88;5.45;;;20.80;99.90;;;;;;4150776;28;20029;-70
2021/08/21 08:41:56;;;;;;;5.82;3.83;;;20.90;99.90;;;;;;4140847;28;20497;-70
2021/08/21 08:43:59;;;;;;;5.38;4.05;;;21.00;99.90;;;;;;4137632;28;20038;-70
2021/08/21 08:46:00;;;;;;;5.03;4.13;;;21.10;99.90;;;;;;4138859;28;20044;-70
2021/08/21 08:48:01;;;;;;;5.15;3.03;;;21.20;99.90;;;;;;4145436;28;20046;-70
2021/08/21 08:50:04;;;;;;;4.72;3.47;;;21.20;99.90;;;;;;4139836;28;20100;-70
2021/08/21 08:52:08;;;;;;;10.98;3.38;;;21.30;99.90;;;;;;4140660;28;20026;-70
2021/08/21 08:54:09;;;;;;;7.78;3.80;;;21.40;99.90;;;;;;4146233;28;20030;-70
2021/08/21 08:56:09;;;;;;;5.13;3.45;;;21.50;99.90;;;;;;4146098;28;20675;-70
2021/08/21 08:58:10;;;;;;;5.05;3.17;;;21.60;99.90;;;;;;4138212;28;20559;-70
2021/08/21 09:00:20;;;;;;;4.57;3.33;;;21.60;99.90;;;;;;4146802;28;20026;-70
2021/08/21 09:02:40;;;;;;;5.38;3.40;;;21.80;99.90;;;;;;4144843;28;20045;-70
2021/08/21 09:04:42;;;;;;;5.45;3.33;;;21.90;99.90;;;;;;4142352;28;20037;-70
2021/08/21 09:06:43;;;;;;;7.30;4.50;;;22.00;99.90;;;;;;4142536;28;20034;-70
2021/08/21 09:08:43;;;;;;;7.68;3.63;;;22.10;99.90;;;;;;4154468;28;20113;-70
2021/08/21 09:10:45;;;;;;;4.00;2.95;;;22.20;99.90;;;;;;4150136;28;20095;-70
2021/08/21 09:12:48;;;;;;;3.90;3.30;;;22.30;99.90;;;;;;4147064;28;20504;-70
2021/08/21 09:14:49;;;;;;;6.85;4.45;;;22.40;99.90;;;;;;4151638;28;20393;-70
2021/08/21 09:16:49;;;;;;;9.38;5.82;;;22.50;99.90;;;;;;4139635;28;20030;-70
2021/08/21 09:19:05;;;;;;;9.55;4.05;;;22.60;99.90;;;;;;4150730;28;20065;-70
2021/08/21 09:21:06;;;;;;;7.82;5.05;;;22.70;99.90;;;;;;4146589;28;20593;-70
2021/08/21 09:23:35;;;;;;;7.25;4.57;;;22.80;99.90;;;;;;4147296;28;20041;-70
2021/08/21 09:25:35;;;;;;;4.70;3.08;;;22.90;99.90;;;;;;4147134;28;20489;-70
2021/08/21 09:27:36;;;;;;;5.30;3.42;;;22.90;99.90;;;;;;4144670;28;20045;-70
2021/08/21 09:29:36;;;;;;;7.30;4.20;;;23.10;99.90;;;;;;4143266;28;20045;-70
2021/08/21 09:31:38;;;;;;;5.45;3.80;;;23.10;99.90;;;;;;4150793;28;20095;-70
2021/08/21 09:33:54;;;;;;;3.72;2.97;;;23.30;99.90;;;;;;4143387;28;20046;-70
2021/08/21 09:35:54;;;;;;;5.25;2.78;;;23.30;99.90;;;;;;4145254;28;20510;-70
2021/08/21 09:37:58;;;;;;;3.75;2.65;;;23.40;99.90;;;;;;4123107;28;20177;-70
2021/08/21 09:40:03;;;;;;;3.33;2.28;;;23.50;99.90;;;;;;4148794;28;20037;-70
2021/08/21 09:42:07;;;;;;;4.10;2.55;;;23.50;99.90;;;;;;4149252;28;20112;-70
2021/08/21 09:44:08;;;;;;;3.58;2.53;;;23.60;99.90;;;;;;4149860;28;20148;-70
2021/08/21 09:46:14;;;;;;;4.17;2.37;;;23.70;99.90;;;;;;4133646;28;20576;-70
2021/08/21 09:48:15;;;;;;;8.13;2.70;;;23.70;99.90;;;;;;4150809;28;20057;-70
2021/08/21 09:50:18;;;;;;;3.78;2.28;;;23.80;99.90;;;;;;4156763;28;20397;-70
2021/08/21 09:52:19;;;;;;;5.20;2.30;;;23.90;99.90;;;;;;4159041;28;20044;-70
2021/08/21 09:54:21;;;;;;;4.18;1.95;;;23.90;99.90;;;;;;4154307;28;20643;-70
2021/08/21 09:56:32;;;;;;;3.78;2.50;;;24.00;99.90;;;;;;4150002;28;20494;-70
2021/08/21 09:58:33;;;;;;;3.72;1.90;;;24.10;99.90;;;;;;4141290;28;20033;-70
2021/08/21 10:00:36;;;;;;;3.63;2.35;;;24.10;99.90;;;;;;4139727;28;20053;-70
2021/08/21 10:02:38;;;;;;;3.35;2.60;;;24.10;99.90;;;;;;4142492;28;20029;-70
2021/08/21 10:04:41;;;;;;;3.42;2.33;;;24.10;99.90;;;;;;4144229;28;20066;-70
2021/08/21 10:06:42;;;;;;;4.40;2.13;;;24.10;99.90;;;;;;4149230;28;20701;-70
2021/08/21 10:08:43;;;;;;;5.47;1.85;;;24.10;99.90;;;;;;4148790;28;20124;-70
2021/08/21 10:10:51;;;;;;;3.45;1.95;;;24.20;99.90;;;;;;4156645;28;20382;-70
2021/08/21 10:12:54;;;;;;;3.22;2.08;;;24.20;99.90;;;;;;4151923;28;20057;-70
2021/08/21 10:14:55;;;;;;;2.55;1.73;;;24.30;99.90;;;;;;4154250;28;20026;-70
2021/08/21 10:16:56;;;;;;;2.40;1.80;;;24.30;99.90;;;;;;4156806;28;20183;-70
2021/08/21 10:18:59;;;;;;;2.45;1.88;;;24.30;99.90;;;;;;4154677;28;20517;-70
2021/08/21 10:20:59;;;;;;;2.05;1.60;;;24.40;99.90;;;;;;4148959;28;20056;-70
2021/08/21 10:23:12;;;;;;;2.53;1.60;;;24.50;99.90;;;;;;4146776;28;20030;-70
2021/08/21 10:25:14;;;;;;;2.53;1.70;;;24.60;99.90;;;;;;4141298;28;20442;-70
2021/08/21 10:27:47;;;;;;;2.80;1.45;;;24.60;99.90;;;;;;4139280;28;20054;-69
2021/08/21 10:30:00;;;;;;;4.25;1.85;;;24.70;99.90;;;;;;4151455;28;20037;-70
2021/08/21 10:32:01;;;;;;;2.72;1.60;;;24.70;99.90;;;;;;4145483;28;20478;-70
2021/08/21 10:34:03;;;;;;;3.28;1.58;;;24.70;99.90;;;;;;4146671;28;20100;-70
2021/08/21 10:36:04;;;;;;;2.28;1.33;;;24.70;99.90;;;;;;4146479;28;20033;-70